sensor_id;sensor_type;location;lat;lon;timestamp;pressure;altitude;pressure_sealevel;temperature;humidity
66742;BME280;53654;54.152;19.432;2022-12-18T00:01:21;103023.20;;;-3.98;79.57
66742;BME280;53654;54.152;19.432;2022-12-18T00:03:49;103028.12;;;-3.97;79.32
66742;BME280;53654;54.152;19.432;2022-12-18T00:06:17;103033.70;;;-3.95;79.77
66742;BME280;53654;54.152;19.432;2022-12-18T00:08:44;103039.17;;;-3.95;79.84
66742;BME280;53654;54.152;19.432;2022-12-18T00:11:15;103048.38;;;-3.97;79.56
66742;BME280;53654;54.152;19.432;2022-12-18T00:13:43;103052.21;;;-3.96;79.88
66742;BME280;53654;54.152;19.432;2022-12-18T00:16:13;103055.95;;;-3.94;79.73
66742;BME280;53654;54.152;19.432;2022-12-18T00:18:41;103057.20;;;-3.90;79.67
66742;BME280;53654;54.152;19.432;2022-12-18T00:21:10;103060.79;;;-3.86;79.68
66742;BME280;53654;54.152;19.432;2022-12-18T00:23:37;103062.11;;;-3.88;79.06
66742;BME280;53654;54.152;19.432;2022-12-18T00:26:09;103068.73;;;-3.93;78.88
66742;BME280;53654;54.152;19.432;2022-12-18T00:28:36;103068.08;;;-3.98;79.11
66742;BME280;53654;54.152;19.432;2022-12-18T00:31:09;103067.29;;;-3.96;79.16
66742;BME280;53654;54.152;19.432;2022-12-18T00:33:38;103064.16;;;-3.96;79.45
66742;BME280;53654;54.152;19.432;2022-12-18T00:36:20;103063.46;;;-3.98;79.37
66742;BME280;53654;54.152;19.432;2022-12-18T00:38:47;103062.58;;;-4.02;79.09
66742;BME280;53654;54.152;19.432;2022-12-18T00:41:18;103071.86;;;-4.03;79.24
66742;BME280;53654;54.152;19.432;2022-12-18T00:44:06;103072.11;;;-4.08;79.25
66742;BME280;53654;54.152;19.432;2022-12-18T00:46:34;103069.23;;;-4.08;79.69
66742;BME280;53654;54.152;19.432;2022-12-18T00:49:01;103071.64;;;-4.06;79.59
66742;BME280;53654;54.152;19.432;2022-12-18T00:51:27;103070.40;;;-4.04;79.44
66742;BME280;53654;54.152;19.432;2022-12-18T00:53:54;103069.24;;;-4.04;79.38
66742;BME280;53654;54.152;19.432;2022-12-18T00:56:22;103069.66;;;-4.05;79.37
66742;BME280;53654;54.152;19.432;2022-12-18T00:58:49;103068.79;;;-4.05;79.49
66742;BME280;53654;54.152;19.432;2022-12-18T01:01:17;103071.56;;;-4.09;79.29
66742;BME280;53654;54.152;19.432;2022-12-18T01:03:44;103076.76;;;-4.08;79.49
66742;BME280;53654;54.152;19.432;2022-12-18T01:06:14;103076.64;;;-4.03;79.90
66742;BME280;53654;54.152;19.432;2022-12-18T01:08:41;103079.52;;;-3.96;79.91
66742;BME280;53654;54.152;19.432;2022-12-18T01:11:17;103079.27;;;-3.93;79.92
66742;BME280;53654;54.152;19.432;2022-12-18T01:13:44;103084.13;;;-3.90;79.97
66742;BME280;53654;54.152;19.432;2022-12-18T01:16:12;103082.91;;;-3.88;79.66
66742;BME280;53654;54.152;19.432;2022-12-18T01:18:39;103095.32;;;-3.87;79.66
66742;BME280;53654;54.152;19.432;2022-12-18T01:21:11;103099.59;;;-3.85;79.69
66742;BME280;53654;54.152;19.432;2022-12-18T01:23:38;103098.13;;;-3.80;79.93
66742;BME280;53654;54.152;19.432;2022-12-18T01:26:16;103101.06;;;-3.74;79.88
66742;BME280;53654;54.152;19.432;2022-12-18T01:28:44;103105.08;;;-3.69;79.69
66742;BME280;53654;54.152;19.432;2022-12-18T01:31:13;103105.16;;;-3.66;79.54
66742;BME280;53654;54.152;19.432;2022-12-18T01:33:40;103102.59;;;-3.66;79.18
66742;BME280;53654;54.152;19.432;2022-12-18T01:36:08;103105.52;;;-3.62;79.13
66742;BME280;53654;54.152;19.432;2022-12-18T01:38:40;103112.23;;;-3.59;79.06
66742;BME280;53654;54.152;19.432;2022-12-18T01:41:08;103118.23;;;-3.59;78.92
66742;BME280;53654;54.152;19.432;2022-12-18T01:44:46;103125.63;;;-3.58;78.64
66742;BME280;53654;54.152;19.432;2022-12-18T01:46:52;103122.08;;;-3.62;78.94
66742;BME280;53654;54.152;19.432;2022-12-18T01:49:19;103125.98;;;-3.56;78.61
66742;BME280;53654;54.152;19.432;2022-12-18T01:51:45;103124.27;;;-3.58;78.45
66742;BME280;53654;54.152;19.432;2022-12-18T01:54:12;103127.35;;;-3.56;78.72
66742;BME280;53654;54.152;19.432;2022-12-18T01:56:39;103129.84;;;-3.53;78.78
66742;BME280;53654;54.152;19.432;2022-12-18T01:59:09;103128.41;;;-3.51;78.59
66742;BME280;53654;54.152;19.432;2022-12-18T02:01:36;103127.96;;;-3.50;78.59
66742;BME280;53654;54.152;19.432;2022-12-18T02:04:34;103130.07;;;-3.50;78.98
66742;BME280;53654;54.152;19.432;2022-12-18T02:07:09;103129.33;;;-3.52;78.88
66742;BME280;53654;54.152;19.432;2022-12-18T02:09:49;103132.32;;;-3.53;79.05
66742;BME280;53654;54.152;19.432;2022-12-18T02:12:20;103134.13;;;-3.54;79.19
66742;BME280;53654;54.152;19.432;2022-12-18T02:15:01;103141.20;;;-3.51;79.40
66742;BME280;53654;54.152;19.432;2022-12-18T02:17:53;103137.88;;;-3.50;79.20
66742;BME280;53654;54.152;19.432;2022-12-18T02:20:48;103145.28;;;-3.58;78.74
66742;BME280;53654;54.152;19.432;2022-12-18T02:26:11;103143.89;;;-3.68;78.51
66742;BME280;53654;54.152;19.432;2022-12-18T02:28:49;103139.77;;;-3.68;78.23
66742;BME280;53654;54.152;19.432;2022-12-18T02:31:25;103140.92;;;-3.69;78.39
66742;BME280;53654;54.152;19.432;2022-12-18T02:33:58;103138.41;;;-3.64;78.77
66742;BME280;53654;54.152;19.432;2022-12-18T02:36:27;103142.25;;;-3.63;78.53
66742;BME280;53654;54.152;19.432;2022-12-18T02:38:56;103144.21;;;-3.62;78.43
66742;BME280;53654;54.152;19.432;2022-12-18T02:41:25;103147.60;;;-3.61;78.53
66742;BME280;53654;54.152;19.432;2022-12-18T02:43:57;103146.34;;;-3.63;77.94
66742;BME280;53654;54.152;19.432;2022-12-18T02:46:40;103149.29;;;-3.69;78.24
66742;BME280;53654;54.152;19.432;2022-12-18T02:55:03;103158.19;;;-3.84;79.07
66742;BME280;53654;54.152;19.432;2022-12-18T02:57:44;103159.30;;;-3.86;79.15
66742;BME280;53654;54.152;19.432;2022-12-18T03:00:16;103164.58;;;-3.83;79.51
66742;BME280;53654;54.152;19.432;2022-12-18T03:02:51;103167.59;;;-3.81;79.27
66742;BME280;53654;54.152;19.432;2022-12-18T03:05:30;103172.49;;;-3.82;79.04
66742;BME280;53654;54.152;19.432;2022-12-18T03:08:22;103175.80;;;-3.81;79.06
66742;BME280;53654;54.152;19.432;2022-12-18T03:10:58;103174.61;;;-3.83;79.23
66742;BME280;53654;54.152;19.432;2022-12-18T03:13:39;103177.25;;;-3.82;78.97
66742;BME280;53654;54.152;19.432;2022-12-18T03:16:11;103173.12;;;-3.84;78.75
66742;BME280;53654;54.152;19.432;2022-12-18T03:18:45;103175.48;;;-3.87;78.61
66742;BME280;53654;54.152;19.432;2022-12-18T03:21:15;103181.63;;;-3.89;78.79
66742;BME280;53654;54.152;19.432;2022-12-18T03:23:48;103188.41;;;-3.91;78.88
66742;BME280;53654;54.152;19.432;2022-12-18T03:26:19;103188.78;;;-3.94;78.42
66742;BME280;53654;54.152;19.432;2022-12-18T03:29:05;103194.20;;;-3.97;78.46
66742;BME280;53654;54.152;19.432;2022-12-18T03:31:37;103196.31;;;-4.02;78.54
66742;BME280;53654;54.152;19.432;2022-12-18T03:34:13;103196.55;;;-4.10;78.17
66742;BME280;53654;54.152;19.432;2022-12-18T03:36:43;103199.66;;;-4.19;78.49
66742;BME280;53654;54.152;19.432;2022-12-18T03:39:10;103200.31;;;-4.18;78.85
66742;BME280;53654;54.152;19.432;2022-12-18T03:41:48;103199.43;;;-4.14;78.81
66742;BME280;53654;54.152;19.432;2022-12-18T03:44:36;103198.19;;;-4.15;78.60
66742;BME280;53654;54.152;19.432;2022-12-18T03:47:51;103197.69;;;-4.21;78.06
66742;BME280;53654;54.152;19.432;2022-12-18T03:50:17;103201.59;;;-4.34;78.09
66742;BME280;53654;54.152;19.432;2022-12-18T03:52:55;103207.80;;;-4.42;78.22
66742;BME280;53654;54.152;19.432;2022-12-18T03:55:23;103215.12;;;-4.46;78.07
66742;BME280;53654;54.152;19.432;2022-12-18T03:57:57;103217.96;;;-4.54;77.95
66742;BME280;53654;54.152;19.432;2022-12-18T04:00:28;103220.45;;;-4.55;78.15
66742;BME280;53654;54.152;19.432;2022-12-18T04:03:04;103224.02;;;-4.55;78.12
66742;BME280;53654;54.152;19.432;2022-12-18T04:05:37;103226.34;;;-4.60;77.78
66742;BME280;53654;54.152;19.432;2022-12-18T04:08:05;103227.05;;;-4.63;77.55
66742;BME280;53654;54.152;19.432;2022-12-18T04:10:34;103234.11;;;-4.68;77.71
66742;BME280;53654;54.152;19.432;2022-12-18T04:13:02;103240.66;;;-4.67;77.83
66742;BME280;53654;54.152;19.432;2022-12-18T04:15:29;103243.34;;;-4.62;77.69
66742;BME280;53654;54.152;19.432;2022-12-18T04:17:57;103244.83;;;-4.60;77.38
66742;BME280;53654;54.152;19.432;2022-12-18T04:20:24;103238.31;;;-4.61;77.37
66742;BME280;53654;54.152;19.432;2022-12-18T04:22:52;103240.84;;;-4.58;77.22
66742;BME280;53654;54.152;19.432;2022-12-18T04:25:19;103242.05;;;-4.55;77.17
66742;BME280;53654;54.152;19.432;2022-12-18T04:28:15;103246.37;;;-4.62;76.79
66742;BME280;53654;54.152;19.432;2022-12-18T04:30:42;103248.48;;;-4.63;77.04
66742;BME280;53654;54.152;19.432;2022-12-18T04:33:10;103246.58;;;-4.62;76.71
66742;BME280;53654;54.152;19.432;2022-12-18T04:35:41;103254.06;;;-4.67;76.41
66742;BME280;53654;54.152;19.432;2022-12-18T04:38:08;103252.64;;;-4.70;76.71
66742;BME280;53654;54.152;19.432;2022-12-18T04:40:36;103256.09;;;-4.69;76.32
66742;BME280;53654;54.152;19.432;2022-12-18T04:43:05;103260.34;;;-4.71;75.95
66742;BME280;53654;54.152;19.432;2022-12-18T04:45:32;103265.95;;;-4.76;75.63
66742;BME280;53654;54.152;19.432;2022-12-18T04:47:59;103260.63;;;-4.81;75.44
66742;BME280;53654;54.152;19.432;2022-12-18T04:50:27;103264.31;;;-4.79;75.53
66742;BME280;53654;54.152;19.432;2022-12-18T04:52:54;103267.33;;;-4.78;75.45
66742;BME280;53654;54.152;19.432;2022-12-18T04:55:21;103271.02;;;-4.79;75.12
66742;BME280;53654;54.152;19.432;2022-12-18T04:57:48;103262.04;;;-4.80;75.15
66742;BME280;53654;54.152;19.432;2022-12-18T05:00:15;103266.27;;;-4.79;74.96
66742;BME280;53654;54.152;19.432;2022-12-18T05:02:41;103270.38;;;-4.84;74.64
66742;BME280;53654;54.152;19.432;2022-12-18T05:05:09;103275.30;;;-4.88;74.59
66742;BME280;53654;54.152;19.432;2022-12-18T05:07:36;103272.10;;;-4.88;75.23
66742;BME280;53654;54.152;19.432;2022-12-18T05:10:03;103273.11;;;-4.84;75.01
66742;BME280;53654;54.152;19.432;2022-12-18T05:12:31;103273.19;;;-4.81;75.00
66742;BME280;53654;54.152;19.432;2022-12-18T05:14:58;103278.92;;;-4.80;74.85
66742;BME280;53654;54.152;19.432;2022-12-18T05:17:25;103284.23;;;-4.78;74.79
66742;BME280;53654;54.152;19.432;2022-12-18T05:19:52;103288.95;;;-4.78;74.33
66742;BME280;53654;54.152;19.432;2022-12-18T05:22:18;103291.45;;;-4.77;74.69
66742;BME280;53654;54.152;19.432;2022-12-18T05:24:45;103292.88;;;-4.80;74.43
66742;BME280;53654;54.152;19.432;2022-12-18T05:27:12;103298.16;;;-4.82;74.59
66742;BME280;53654;54.152;19.432;2022-12-18T05:29:38;103300.90;;;-4.81;74.40
66742;BME280;53654;54.152;19.432;2022-12-18T05:32:05;103298.67;;;-4.82;74.58
66742;BME280;53654;54.152;19.432;2022-12-18T05:34:31;103299.91;;;-4.83;74.54
66742;BME280;53654;54.152;19.432;2022-12-18T05:36:59;103310.00;;;-4.81;74.65
66742;BME280;53654;54.152;19.432;2022-12-18T05:39:26;103310.26;;;-4.78;74.90
66742;BME280;53654;54.152;19.432;2022-12-18T05:41:53;103310.89;;;-4.78;74.47
66742;BME280;53654;54.152;19.432;2022-12-18T05:44:19;103310.86;;;-4.79;74.54
66742;BME280;53654;54.152;19.432;2022-12-18T05:46:46;103313.45;;;-4.79;74.49
66742;BME280;53654;54.152;19.432;2022-12-18T05:49:13;103318.14;;;-4.81;74.64
66742;BME280;53654;54.152;19.432;2022-12-18T05:51:39;103319.86;;;-4.81;74.45
66742;BME280;53654;54.152;19.432;2022-12-18T05:54:07;103324.48;;;-4.88;74.16
66742;BME280;53654;54.152;19.432;2022-12-18T05:56:34;103327.55;;;-4.88;74.47
66742;BME280;53654;54.152;19.432;2022-12-18T05:59:00;103324.33;;;-4.86;74.49
66742;BME280;53654;54.152;19.432;2022-12-18T06:01:27;103327.26;;;-4.80;74.38
66742;BME280;53654;54.152;19.432;2022-12-18T06:03:55;103330.32;;;-4.80;74.14
66742;BME280;53654;54.152;19.432;2022-12-18T06:06:24;103333.75;;;-4.83;73.89
66742;BME280;53654;54.152;19.432;2022-12-18T06:08:52;103337.95;;;-4.90;73.64
66742;BME280;53654;54.152;19.432;2022-12-18T06:11:22;103337.84;;;-4.91;73.98
66742;BME280;53654;54.152;19.432;2022-12-18T06:13:51;103339.60;;;-4.91;73.85
66742;BME280;53654;54.152;19.432;2022-12-18T06:16:25;103345.16;;;-4.91;73.91
66742;BME280;53654;54.152;19.432;2022-12-18T06:18:55;103353.66;;;-4.91;73.65
66742;BME280;53654;54.152;19.432;2022-12-18T06:21:22;103358.09;;;-4.93;73.64
66742;BME280;53654;54.152;19.432;2022-12-18T06:23:49;103357.84;;;-4.92;73.54
66742;BME280;53654;54.152;19.432;2022-12-18T06:26:15;103360.14;;;-4.93;73.60
66742;BME280;53654;54.152;19.432;2022-12-18T06:28:42;103363.51;;;-4.97;73.11
66742;BME280;53654;54.152;19.432;2022-12-18T06:31:09;103365.62;;;-5.00;73.31
66742;BME280;53654;54.152;19.432;2022-12-18T06:33:37;103368.08;;;-4.99;73.30
66742;BME280;53654;54.152;19.432;2022-12-18T06:36:10;103373.16;;;-4.96;73.42
66742;BME280;53654;54.152;19.432;2022-12-18T06:38:39;103378.67;;;-4.95;73.20
66742;BME280;53654;54.152;19.432;2022-12-18T06:41:09;103382.48;;;-4.94;73.29
66742;BME280;53654;54.152;19.432;2022-12-18T06:43:36;103385.39;;;-4.91;73.07
66742;BME280;53654;54.152;19.432;2022-12-18T06:46:04;103392.02;;;-4.87;73.19
66742;BME280;53654;54.152;19.432;2022-12-18T06:48:31;103393.83;;;-4.84;73.14
66742;BME280;53654;54.152;19.432;2022-12-18T06:50:58;103395.77;;;-4.83;72.97
66742;BME280;53654;54.152;19.432;2022-12-18T06:53:25;103401.11;;;-4.81;72.90
66742;BME280;53654;54.152;19.432;2022-12-18T06:56:00;103402.17;;;-4.80;72.66
66742;BME280;53654;54.152;19.432;2022-12-18T06:58:33;103395.14;;;-4.81;72.86
66742;BME280;53654;54.152;19.432;2022-12-18T07:01:01;103397.58;;;-4.80;72.78
66742;BME280;53654;54.152;19.432;2022-12-18T07:03:28;103401.30;;;-4.81;72.62
66742;BME280;53654;54.152;19.432;2022-12-18T07:05:56;103404.74;;;-4.78;72.78
66742;BME280;53654;54.152;19.432;2022-12-18T07:08:22;103411.02;;;-4.77;72.44
66742;BME280;53654;54.152;19.432;2022-12-18T07:10:49;103417.02;;;-4.77;72.36
66742;BME280;53654;54.152;19.432;2022-12-18T07:13:22;103423.70;;;-4.78;72.16
66742;BME280;53654;54.152;19.432;2022-12-18T07:15:49;103428.30;;;-4.76;72.61
66742;BME280;53654;54.152;19.432;2022-12-18T07:18:16;103427.57;;;-4.75;72.32
66742;BME280;53654;54.152;19.432;2022-12-18T07:20:43;103428.12;;;-4.74;72.16
66742;BME280;53654;54.152;19.432;2022-12-18T07:23:11;103429.21;;;-4.79;72.36
66742;BME280;53654;54.152;19.432;2022-12-18T07:25:38;103437.00;;;-4.83;72.34
66742;BME280;53654;54.152;19.432;2022-12-18T07:28:05;103442.11;;;-4.85;72.58
66742;BME280;53654;54.152;19.432;2022-12-18T07:30:32;103445.05;;;-4.82;72.55
66742;BME280;53654;54.152;19.432;2022-12-18T07:32:59;103449.45;;;-4.81;72.48
66742;BME280;53654;54.152;19.432;2022-12-18T07:35:26;103449.70;;;-4.78;72.24
66742;BME280;53654;54.152;19.432;2022-12-18T07:37:52;103447.89;;;-4.76;72.29
66742;BME280;53654;54.152;19.432;2022-12-18T07:40:19;103444.62;;;-4.75;72.59
66742;BME280;53654;54.152;19.432;2022-12-18T07:42:46;103443.63;;;-4.74;72.40
66742;BME280;53654;54.152;19.432;2022-12-18T07:45:12;103451.44;;;-4.73;72.38
66742;BME280;53654;54.152;19.432;2022-12-18T07:47:39;103450.02;;;-4.73;72.34
66742;BME280;53654;54.152;19.432;2022-12-18T07:50:07;103450.80;;;-4.72;72.44
66742;BME280;53654;54.152;19.432;2022-12-18T07:52:34;103455.02;;;-4.66;72.33
66742;BME280;53654;54.152;19.432;2022-12-18T07:55:01;103455.32;;;-4.63;72.28
66742;BME280;53654;54.152;19.432;2022-12-18T07:57:28;103458.41;;;-4.61;72.29
66742;BME280;53654;54.152;19.432;2022-12-18T08:00:15;103467.46;;;-4.61;72.48
66742;BME280;53654;54.152;19.432;2022-12-18T08:02:42;103467.16;;;-4.58;72.40
66742;BME280;53654;54.152;19.432;2022-12-18T08:05:09;103469.14;;;-4.54;72.22
66742;BME280;53654;54.152;19.432;2022-12-18T08:07:36;103468.76;;;-4.51;72.27
66742;BME280;53654;54.152;19.432;2022-12-18T08:10:03;103469.77;;;-4.49;72.16
66742;BME280;53654;54.152;19.432;2022-12-18T08:12:32;103470.14;;;-4.50;72.11
66742;BME280;53654;54.152;19.432;2022-12-18T08:14:58;103472.38;;;-4.54;72.38
66742;BME280;53654;54.152;19.432;2022-12-18T08:17:25;103473.84;;;-4.52;72.29
66742;BME280;53654;54.152;19.432;2022-12-18T08:19:52;103476.39;;;-4.49;72.35
66742;BME280;53654;54.152;19.432;2022-12-18T08:22:19;103480.75;;;-4.48;72.27
66742;BME280;53654;54.152;19.432;2022-12-18T08:24:45;103483.24;;;-4.49;72.27
66742;BME280;53654;54.152;19.432;2022-12-18T08:27:12;103493.98;;;-4.47;72.36
66742;BME280;53654;54.152;19.432;2022-12-18T08:29:56;103499.13;;;-4.50;72.50
66742;BME280;53654;54.152;19.432;2022-12-18T08:32:24;103513.83;;;-4.48;72.37
66742;BME280;53654;54.152;19.432;2022-12-18T08:34:51;103514.45;;;-4.50;72.44
66742;BME280;53654;54.152;19.432;2022-12-18T08:37:18;103522.48;;;-4.48;72.43
66742;BME280;53654;54.152;19.432;2022-12-18T08:39:45;103521.97;;;-4.48;72.56
66742;BME280;53654;54.152;19.432;2022-12-18T08:42:12;103520.05;;;-4.45;72.67
66742;BME280;53654;54.152;19.432;2022-12-18T08:45:00;103519.95;;;-4.44;72.68
66742;BME280;53654;54.152;19.432;2022-12-18T08:47:27;103523.88;;;-4.41;72.97
66742;BME280;53654;54.152;19.432;2022-12-18T08:49:54;103522.70;;;-4.37;72.84
66742;BME280;53654;54.152;19.432;2022-12-18T08:52:21;103520.89;;;-4.36;72.88
66742;BME280;53654;54.152;19.432;2022-12-18T08:54:48;103516.91;;;-4.34;72.95
66742;BME280;53654;54.152;19.432;2022-12-18T08:57:14;103516.49;;;-4.33;72.87
66742;BME280;53654;54.152;19.432;2022-12-18T08:59:41;103520.15;;;-4.32;73.07
66742;BME280;53654;54.152;19.432;2022-12-18T09:02:10;103524.20;;;-4.29;73.07
66742;BME280;53654;54.152;19.432;2022-12-18T09:04:38;103523.64;;;-4.28;73.12
66742;BME280;53654;54.152;19.432;2022-12-18T09:07:06;103522.56;;;-4.23;72.89
66742;BME280;53654;54.152;19.432;2022-12-18T09:09:32;103524.65;;;-4.16;72.78
66742;BME280;53654;54.152;19.432;2022-12-18T09:11:59;103523.14;;;-4.14;72.72
66742;BME280;53654;54.152;19.432;2022-12-18T09:14:26;103520.85;;;-4.13;72.78
66742;BME280;53654;54.152;19.432;2022-12-18T09:16:53;103523.37;;;-4.10;73.03
66742;BME280;53654;54.152;19.432;2022-12-18T09:19:20;103528.69;;;-4.10;72.98
66742;BME280;53654;54.152;19.432;2022-12-18T09:21:47;103530.47;;;-4.11;72.86
66742;BME280;53654;54.152;19.432;2022-12-18T09:24:15;103531.58;;;-4.08;73.08
66742;BME280;53654;54.152;19.432;2022-12-18T09:26:42;103531.38;;;-4.03;72.98
66742;BME280;53654;54.152;19.432;2022-12-18T09:29:10;103527.01;;;-4.03;72.96
66742;BME280;53654;54.152;19.432;2022-12-18T09:31:39;103518.70;;;-4.02;72.81
66742;BME280;53654;54.152;19.432;2022-12-18T09:34:06;103511.30;;;-4.03;73.24
66742;BME280;53654;54.152;19.432;2022-12-18T09:36:33;103524.38;;;-3.94;73.29
66742;BME280;53654;54.152;19.432;2022-12-18T09:38:59;103529.70;;;-3.87;73.28
66742;BME280;53654;54.152;19.432;2022-12-18T09:41:52;103530.69;;;-3.82;73.12
66742;BME280;53654;54.152;19.432;2022-12-18T09:44:29;103530.87;;;-3.82;73.24
66742;BME280;53654;54.152;19.432;2022-12-18T09:49:44;103531.17;;;-3.84;73.37
66742;BME280;53654;54.152;19.432;2022-12-18T09:52:19;103535.05;;;-3.83;73.45
66742;BME280;53654;54.152;19.432;2022-12-18T09:55:05;103537.63;;;-3.81;73.42
66742;BME280;53654;54.152;19.432;2022-12-18T09:57:42;103534.92;;;-3.82;73.64
66742;BME280;53654;54.152;19.432;2022-12-18T10:00:16;103535.66;;;-3.80;73.95
66742;BME280;53654;54.152;19.432;2022-12-18T10:02:45;103541.08;;;-3.78;73.65
66742;BME280;53654;54.152;19.432;2022-12-18T10:05:37;103538.86;;;-3.73;73.90
66742;BME280;53654;54.152;19.432;2022-12-18T10:14:02;103550.26;;;-3.64;73.77
66742;BME280;53654;54.152;19.432;2022-12-18T10:22:39;103544.16;;;-3.57;73.89
66742;BME280;53654;54.152;19.432;2022-12-18T10:27:45;103552.86;;;-3.45;73.73
66742;BME280;53654;54.152;19.432;2022-12-18T10:30:14;103547.73;;;-3.45;73.85
66742;BME280;53654;54.152;19.432;2022-12-18T10:32:42;103550.61;;;-3.42;73.74
66742;BME280;53654;54.152;19.432;2022-12-18T10:35:19;103553.66;;;-3.38;74.14
66742;BME280;53654;54.152;19.432;2022-12-18T10:38:20;103554.82;;;-3.41;73.83
66742;BME280;53654;54.152;19.432;2022-12-18T10:48:24;103542.21;;;-3.33;74.16
66742;BME280;53654;54.152;19.432;2022-12-18T10:50:51;103542.55;;;-3.26;74.31
66742;BME280;53654;54.152;19.432;2022-12-18T10:53:40;103544.32;;;-3.23;73.93
66742;BME280;53654;54.152;19.432;2022-12-18T10:56:08;103547.23;;;-3.21;73.92
66742;BME280;53654;54.152;19.432;2022-12-18T10:58:37;103550.45;;;-3.16;74.01
66742;BME280;53654;54.152;19.432;2022-12-18T11:01:10;103550.21;;;-3.13;73.85
66742;BME280;53654;54.152;19.432;2022-12-18T11:06:13;103547.73;;;-3.07;73.76
66742;BME280;53654;54.152;19.432;2022-12-18T11:08:42;103542.79;;;-3.05;73.56
66742;BME280;53654;54.152;19.432;2022-12-18T11:11:22;103543.46;;;-3.01;73.59
66742;BME280;53654;54.152;19.432;2022-12-18T11:14:14;103544.40;;;-3.02;73.49
66742;BME280;53654;54.152;19.432;2022-12-18T11:16:46;103546.67;;;-3.03;73.32
66742;BME280;53654;54.152;19.432;2022-12-18T11:19:36;103541.15;;;-3.06;73.63
66742;BME280;53654;54.152;19.432;2022-12-18T11:24:52;103539.18;;;-3.05;73.71
66742;BME280;53654;54.152;19.432;2022-12-18T11:27:40;103538.23;;;-3.08;73.76
66742;BME280;53654;54.152;19.432;2022-12-18T11:32:52;103547.61;;;-3.01;73.93
66742;BME280;53654;54.152;19.432;2022-12-18T11:40:49;103533.89;;;-2.96;73.94
66742;BME280;53654;54.152;19.432;2022-12-18T11:43:31;103534.77;;;-2.96;74.20
66742;BME280;53654;54.152;19.432;2022-12-18T11:46:13;103546.66;;;-2.98;74.03
66742;BME280;53654;54.152;19.432;2022-12-18T11:48:52;103551.69;;;-3.01;74.00
66742;BME280;53654;54.152;19.432;2022-12-18T11:51:28;103559.15;;;-3.00;74.12
66742;BME280;53654;54.152;19.432;2022-12-18T11:54:00;103560.27;;;-3.01;74.03
66742;BME280;53654;54.152;19.432;2022-12-18T11:56:36;103551.63;;;-2.98;74.27
66742;BME280;53654;54.152;19.432;2022-12-18T12:02:17;103557.40;;;-2.91;74.04
66742;BME280;53654;54.152;19.432;2022-12-18T12:07:50;103570.14;;;-2.89;74.40
66742;BME280;53654;54.152;19.432;2022-12-18T12:16:25;103562.53;;;-2.81;74.26
66742;BME280;53654;54.152;19.432;2022-12-18T12:19:05;103554.30;;;-2.77;74.25
66742;BME280;53654;54.152;19.432;2022-12-18T12:21:51;103563.45;;;-2.73;74.09
66742;BME280;53654;54.152;19.432;2022-12-18T12:24:32;103576.20;;;-2.68;74.08
66742;BME280;53654;54.152;19.432;2022-12-18T12:27:18;103575.77;;;-2.65;73.62
66742;BME280;53654;54.152;19.432;2022-12-18T12:36:00;103600.97;;;-2.62;73.27
66742;BME280;53654;54.152;19.432;2022-12-18T12:38:22;103600.50;;;-2.64;73.35
66742;BME280;53654;54.152;19.432;2022-12-18T12:41:13;103601.69;;;-2.58;73.59
66742;BME280;53654;54.152;19.432;2022-12-18T12:44:06;103608.09;;;-2.52;73.60
66742;BME280;53654;54.152;19.432;2022-12-18T12:46:39;103601.42;;;-2.48;73.29
66742;BME280;53654;54.152;19.432;2022-12-18T12:49:12;103606.74;;;-2.40;73.23
66742;BME280;53654;54.152;19.432;2022-12-18T12:51:43;103598.67;;;-2.39;73.15
66742;BME280;53654;54.152;19.432;2022-12-18T12:54:20;103589.06;;;-2.37;72.98
66742;BME280;53654;54.152;19.432;2022-12-18T12:56:50;103587.66;;;-2.36;72.79
66742;BME280;53654;54.152;19.432;2022-12-18T13:00:24;103589.21;;;-2.33;72.65
66742;BME280;53654;54.152;19.432;2022-12-18T13:04:59;103585.90;;;-2.40;72.60
66742;BME280;53654;54.152;19.432;2022-12-18T13:08:04;103589.57;;;-2.39;72.87
66742;BME280;53654;54.152;19.432;2022-12-18T13:10:39;103588.23;;;-2.42;72.66
66742;BME280;53654;54.152;19.432;2022-12-18T13:13:14;103587.42;;;-2.44;72.71
66742;BME280;53654;54.152;19.432;2022-12-18T13:15:46;103589.09;;;-2.43;72.92
66742;BME280;53654;54.152;19.432;2022-12-18T13:18:19;103588.20;;;-2.39;72.81
66742;BME280;53654;54.152;19.432;2022-12-18T13:23:32;103587.76;;;-2.38;72.73
66742;BME280;53654;54.152;19.432;2022-12-18T13:26:27;103589.56;;;-2.35;72.74
66742;BME280;53654;54.152;19.432;2022-12-18T13:28:56;103595.52;;;-2.36;72.58
66742;BME280;53654;54.152;19.432;2022-12-18T13:34:22;103595.04;;;-2.36;72.30
66742;BME280;53654;54.152;19.432;2022-12-18T13:36:57;103601.36;;;-2.39;72.58
66742;BME280;53654;54.152;19.432;2022-12-18T13:39:43;103608.90;;;-2.41;72.52
66742;BME280;53654;54.152;19.432;2022-12-18T13:44:57;103603.39;;;-2.45;72.52
66742;BME280;53654;54.152;19.432;2022-12-18T13:47:36;103606.67;;;-2.48;72.64
66742;BME280;53654;54.152;19.432;2022-12-18T13:50:31;103611.94;;;-2.51;72.60
66742;BME280;53654;54.152;19.432;2022-12-18T13:53:04;103613.63;;;-2.55;72.71
66742;BME280;53654;54.152;19.432;2022-12-18T13:55:32;103619.29;;;-2.56;72.50
66742;BME280;53654;54.152;19.432;2022-12-18T13:58:05;103622.35;;;-2.58;72.53
66742;BME280;53654;54.152;19.432;2022-12-18T14:00:33;103624.09;;;-2.60;72.75
66742;BME280;53654;54.152;19.432;2022-12-18T14:03:00;103627.67;;;-2.64;72.80
66742;BME280;53654;54.152;19.432;2022-12-18T14:05:31;103633.39;;;-2.66;72.74
66742;BME280;53654;54.152;19.432;2022-12-18T14:08:02;103637.02;;;-2.72;72.95
66742;BME280;53654;54.152;19.432;2022-12-18T14:10:30;103639.52;;;-2.76;73.02
66742;BME280;53654;54.152;19.432;2022-12-18T14:13:38;103639.27;;;-2.81;73.17
66742;BME280;53654;54.152;19.432;2022-12-18T14:16:11;103634.94;;;-2.91;73.08
66742;BME280;53654;54.152;19.432;2022-12-18T14:19:15;103631.61;;;-2.95;73.46
66742;BME280;53654;54.152;19.432;2022-12-18T14:21:47;103631.66;;;-3.06;73.35